This is the latest recevied weather packets stored in our database for station/object YO8RBY-2. If no packets are shown the sender has not sent any weather packets the latest 10 day(s).
| Time | Temp. | Humidity | Pressure | Rain* | Wind** | Luminosity | Snow |
|---|---|---|---|---|---|---|---|
| 1788293404 | 20.56° C | 65% | 977 hPa | - | - | 0 W/m² | - |
| 1788291580 | 21.11° C | 64% | 977 hPa | - | - | 0 W/m² | - |
| 1788289756 | 21.11° C | 65% | 977 hPa | - | - | 0 W/m² | - |
| 1788287932 | 21.11° C | 65% | 977 hPa | - | - | 0 W/m² | - |
| 1788286108 | 21.67° C | 65% | 977 hPa | - | - | 0 W/m² | - |
| 1788284284 | 22.22° C | 63% | 977 hPa | - | - | 0 W/m² | - |
| 1788282459 | 23.33° C | 58% | 976 hPa | - | - | 0 W/m² | - |
| 1788280635 | 25° C | 54% | 976 hPa | - | - | 0 W/m² | - |
| 1788278827 | 26.67° C | 50% | 976 hPa | - | - | 0 W/m² | - |
| 1788276987 | 25° C | 52% | 976 hPa | - | - | 0 W/m² | - |
| 1788275162 | 26.11° C | 50% | 976 hPa | - | - | 0 W/m² | - |
| 1788273338 | 25° C | 55% | 976 hPa | - | - | 0 W/m² | - |
| 1788271514 | 24.44° C | 55% | 976 hPa | - | - | 0 W/m² | - |
| 1788269690 | 26.67° C | 43% | 975 hPa | - | - | 0 W/m² | - |
| 1788267866 | 30° C | 36% | 975 hPa | - | - | 0 W/m² | - |
| 1788266042 | 29.44° C | 36% | 975 hPa | - | - | 0 W/m² | - |
| 1788264218 | 30° C | 38% | 975 hPa | - | - | 0 W/m² | - |
| 1788262393 | 32.22° C | 32% | 975 hPa | - | - | 0 W/m² | - |
| 1788260569 | 32.22° C | 32% | 975 hPa | - | - | 0 W/m² | - |
| 1788258745 | 32.78° C | 33% | 975 hPa | - | - | 0 W/m² | - |
| 1788256929 | 30° C | 39% | 974 hPa | - | - | 0 W/m² | - |
| 1788255097 | 27.78° C | 43% | 974 hPa | - | - | 0 W/m² | - |
| 1788253272 | 26.67° C | 44% | 974 hPa | - | - | 0 W/m² | - |
| 1788251448 | 25.56° C | 47% | 974 hPa | - | - | 0 W/m² | - |
| 1788249624 | 25.56° C | 44% | 974 hPa | - | - | 0 W/m² | - |
* Rain since midnight (hover to see other rain measurements)
** Current wind speed in m/s (hover to see current wind gust speed)